Time;durP1;ratioP1;P1;durP2;ratioP2;P2;SDS_P1;SDS_P2;PMS_P1;PMS_P2;Temp;Humidity;BMP_temperature;BMP_pressure;BME280_temperature;BME280_humidity;BME280_pressure;Samples;Min_cycle;Max_cycle;Signal;HPM_P1;HPM_P2
2021/03/09 00:00:49;;;;;;;4.17;2.10;;;13.60;40.60;;;;;;5094655;28;20506;-59
2021/03/09 00:03:16;;;;;;;5.57;2.10;;;13.60;40.80;;;;;;5095631;28;20459;-59
2021/03/09 00:05:43;;;;;;;7.10;2.60;;;13.60;41.00;;;;;;5095427;28;20456;-59
2021/03/09 00:08:12;;;;;;;4.63;2.30;;;13.60;41.20;;;;;;5095937;27;20433;-59
2021/03/09 00:10:39;;;;;;;6.20;2.37;;;13.60;41.30;;;;;;5094853;28;20503;-59
2021/03/09 00:13:06;;;;;;;4.03;2.50;;;13.60;41.60;;;;;;5094611;28;20500;-59
2021/03/09 00:15:33;;;;;;;2.60;2.00;;;13.60;41.60;;;;;;5093909;28;20533;-59
2021/03/09 00:18:00;;;;;;;4.67;2.33;;;13.50;41.70;;;;;;5095020;28;20509;-59
2021/03/09 00:20:27;;;;;;;3.07;2.20;;;13.50;41.90;;;;;;5094220;28;20486;-59
2021/03/09 00:22:54;;;;;;;3.10;2.03;;;13.50;42.00;;;;;;5094981;28;20534;-59
2021/03/09 00:25:21;;;;;;;2.30;1.67;;;13.50;42.10;;;;;;5094923;27;20432;-59
2021/03/09 00:27:48;;;;;;;2.37;1.60;;;13.50;42.20;;;;;;5095146;28;20493;-59
2021/03/09 00:30:16;;;;;;;2.37;2.17;;;13.50;43.00;;;;;;5095422;28;20464;-59
2021/03/09 00:32:43;;;;;;;4.83;2.07;;;13.50;42.60;;;;;;5094984;28;20494;-59
2021/03/09 00:35:12;;;;;;;2.53;2.27;;;13.50;42.60;;;;;;5094554;27;20448;-59
2021/03/09 00:37:38;;;;;;;4.33;1.77;;;13.50;42.60;;;;;;5095305;28;20478;-59
2021/03/09 00:40:07;;;;;;;2.27;2.03;;;13.40;42.70;;;;;;5095307;28;20444;-59
2021/03/09 00:42:34;;;;;;;3.53;2.30;;;13.50;42.90;;;;;;5094755;28;20469;-59
2021/03/09 00:45:01;;;;;;;3.20;2.00;;;13.60;43.00;;;;;;5094508;28;20429;-59
2021/03/09 00:47:27;;;;;;;4.27;2.70;;;13.40;43.00;;;;;;5094603;28;20472;-57
2021/03/09 00:49:56;;;;;;;5.10;2.40;;;13.50;43.20;;;;;;5094527;28;20432;-58
2021/03/09 00:52:22;;;;;;;5.07;2.33;;;13.40;43.40;;;;;;5099810;27;20449;-58
2021/03/09 00:54:49;;;;;;;2.33;1.97;;;13.40;43.50;;;;;;5111918;28;20432;-58
2021/03/09 00:57:16;;;;;;;3.83;1.87;;;13.30;43.60;;;;;;5114877;28;20531;-59
2021/03/09 00:59:43;;;;;;;2.30;2.00;;;13.40;43.80;;;;;;5115100;27;20467;-58
2021/03/09 01:02:10;;;;;;;2.73;2.30;;;13.40;43.80;;;;;;5130369;27;20438;-58
2021/03/09 01:04:37;;;;;;;2.90;2.20;;;13.30;43.80;;;;;;5134941;27;20435;-58
2021/03/09 01:07:05;;;;;;;4.03;2.40;;;13.30;43.80;;;;;;5135716;27;20521;-58
2021/03/09 01:09:32;;;;;;;2.70;2.43;;;13.30;44.10;;;;;;5129288;27;20477;-59
2021/03/09 01:11:58;;;;;;;2.90;2.30;;;13.30;44.20;;;;;;5094259;28;20433;-58
2021/03/09 01:14:27;;;;;;;3.57;2.30;;;13.30;44.20;;;;;;5094205;28;20472;-58
2021/03/09 01:16:54;;;;;;;2.23;2.03;;;13.30;44.30;;;;;;5094200;28;20560;-59
2021/03/09 01:19:21;;;;;;;4.17;1.90;;;13.30;44.40;;;;;;5105748;28;20444;-58
2021/03/09 01:21:48;;;;;;;3.20;2.50;;;13.20;44.40;;;;;;5114770;28;20467;-58
2021/03/09 01:24:16;;;;;;;3.50;2.33;;;13.20;44.40;;;;;;5114030;28;20527;-58
2021/03/09 01:26:43;;;;;;;4.43;2.37;;;13.20;44.60;;;;;;5114399;28;20456;-58
2021/03/09 01:29:10;;;;;;;3.30;2.27;;;13.20;44.60;;;;;;5133527;27;20471;-58
2021/03/09 01:31:36;;;;;;;2.50;2.30;;;13.20;44.70;;;;;;5134661;27;20471;-58
2021/03/09 01:34:04;;;;;;;2.93;2.10;;;13.10;44.70;;;;;;5134717;27;20474;-58
2021/03/09 01:36:31;;;;;;;4.47;3.03;;;13.10;44.70;;;;;;5134284;27;20498;-58
2021/03/09 01:38:57;;;;;;;2.53;2.33;;;13.20;44.80;;;;;;5134827;27;20467;-58
2021/03/09 01:41:25;;;;;;;3.50;3.07;;;13.10;44.80;;;;;;5134774;27;20502;-58
2021/03/09 01:43:52;;;;;;;4.53;2.60;;;13.10;44.90;;;;;;5134550;27;20632;-58
2021/03/09 01:46:19;;;;;;;5.27;2.90;;;13.00;45.00;;;;;;5133758;27;20519;-58
2021/03/09 01:48:46;;;;;;;3.70;3.00;;;13.00;45.10;;;;;;5135043;27;20431;-57
2021/03/09 01:51:15;;;;;;;3.00;2.40;;;13.00;45.10;;;;;;5134658;27;20434;-56
2021/03/09 01:53:42;;;;;;;4.03;2.90;;;13.00;45.10;;;;;;5134260;27;20478;-57
2021/03/09 01:56:09;;;;;;;3.70;2.80;;;13.00;45.10;;;;;;5134174;27;20557;-55
2021/03/09 01:58:37;;;;;;;2.97;2.67;;;13.00;45.30;;;;;;5134227;27;20447;-58
2021/03/09 02:01:04;;;;;;;4.50;2.97;;;13.00;45.40;;;;;;5134666;27;20431;-57
2021/03/09 02:03:31;;;;;;;2.70;2.50;;;12.90;45.30;;;;;;5113808;27;20433;-58
2021/03/09 02:05:58;;;;;;;5.40;3.43;;;12.90;45.40;;;;;;5093020;28;20429;-58
2021/03/09 02:08:25;;;;;;;3.63;2.50;;;12.90;45.50;;;;;;5093944;28;20547;-57
2021/03/09 02:10:51;;;;;;;3.87;3.17;;;12.90;45.40;;;;;;5093352;28;20536;-58
2021/03/09 02:13:34;;;;;;;4.40;3.03;;;12.90;45.40;;;;;;5093672;28;20496;-57
2021/03/09 02:16:06;;;;;;;3.07;2.70;;;12.80;45.40;;;;;;5092716;28;20460;-57
2021/03/09 02:18:39;;;;;;;3.30;3.00;;;12.80;45.40;;;;;;5093326;28;20483;-57
2021/03/09 02:21:32;;;;;;;5.53;3.13;;;12.80;45.50;;;;;;5102839;28;20497;-57
2021/03/09 02:24:15;;;;;;;4.00;3.43;;;12.80;45.60;;;;;;5113993;28;20455;-54
2021/03/09 02:26:49;;;;;;;4.87;3.10;;;12.80;45.60;;;;;;5118142;27;20547;-57
2021/03/09 02:29:28;;;;;;;4.67;3.30;;;12.80;45.70;;;;;;5118093;27;20525;-55
2021/03/09 02:31:56;;;;;;;3.83;3.23;;;12.70;45.70;;;;;;5117979;27;20478;-57
2021/03/09 02:34:26;;;;;;;3.43;3.13;;;12.70;45.70;;;;;;5117236;28;20507;-55
2021/03/09 02:36:53;;;;;;;4.67;3.17;;;12.70;45.80;;;;;;5117883;27;20482;-56
2021/03/09 02:39:20;;;;;;;4.47;3.27;;;12.70;45.70;;;;;;5117787;28;20546;-58
2021/03/09 02:41:48;;;;;;;5.83;3.30;;;12.60;45.70;;;;;;5115705;28;20530;-55
2021/03/09 02:44:16;;;;;;;6.43;3.70;;;12.60;45.80;;;;;;5117005;28;20531;-56
2021/03/09 02:46:44;;;;;;;6.43;3.20;;;12.50;45.80;;;;;;5116164;27;20428;-58
2021/03/09 02:49:26;;;;;;;7.03;4.03;;;12.60;45.80;;;;;;5096612;28;20458;-58
2021/03/09 02:51:53;;;;;;;4.43;3.50;;;12.70;45.80;;;;;;5096869;28;20441;-57
2021/03/09 02:54:20;;;;;;;5.70;3.83;;;12.50;45.80;;;;;;5096819;28;20496;-52
2021/03/09 02:56:47;;;;;;;4.47;3.83;;;12.50;45.80;;;;;;5097623;27;20476;-54
2021/03/09 02:59:15;;;;;;;3.53;3.23;;;12.60;45.80;;;;;;5097390;28;20473;-55
2021/03/09 03:01:43;;;;;;;8.10;3.63;;;12.50;45.90;;;;;;5096674;28;20527;-58
2021/03/09 03:04:10;;;;;;;4.20;3.30;;;12.60;45.90;;;;;;5096643;28;20448;-57
2021/03/09 03:06:38;;;;;;;5.60;3.50;;;12.50;45.90;;;;;;5137424;27;20463;-57
2021/03/09 03:09:05;;;;;;;5.23;3.97;;;12.50;46.00;;;;;;5138009;27;20531;-58
2021/03/09 03:11:32;;;;;;;4.87;3.10;;;12.50;46.10;;;;;;5137098;27;20481;-58
2021/03/09 03:14:01;;;;;;;8.20;4.37;;;12.50;46.20;;;;;;5135937;27;20507;-57
2021/03/09 03:16:27;;;;;;;4.40;3.60;;;12.40;46.10;;;;;;5137137;27;20505;-58
2021/03/09 03:18:54;;;;;;;4.10;2.90;;;12.40;46.20;;;;;;5137347;27;20445;-57
2021/03/09 03:21:21;;;;;;;4.20;3.67;;;12.40;46.10;;;;;;5137693;27;20439;-57
2021/03/09 03:23:49;;;;;;;4.90;3.67;;;12.40;46.10;;;;;;5137075;27;20481;-57
2021/03/09 03:26:16;;;;;;;4.80;3.60;;;12.50;46.20;;;;;;5137127;27;20467;-55
2021/03/09 03:28:44;;;;;;;4.27;3.40;;;12.40;46.30;;;;;;5137403;27;20474;-54
2021/03/09 03:31:11;;;;;;;3.50;3.20;;;12.30;46.20;;;;;;5135854;27;20539;-58
2021/03/09 03:33:38;;;;;;;5.27;4.03;;;12.40;46.40;;;;;;5137383;27;20472;-56
2021/03/09 03:36:06;;;;;;;7.00;3.67;;;12.40;46.40;;;;;;5136523;27;20443;-58
2021/03/09 03:38:33;;;;;;;5.23;3.90;;;12.40;46.30;;;;;;5137345;27;20446;-57
2021/03/09 03:41:01;;;;;;;6.60;3.60;;;12.40;46.20;;;;;;5136950;27;20467;-58
2021/03/09 03:43:28;;;;;;;5.07;3.60;;;12.40;46.40;;;;;;5137051;27;20493;-58
2021/03/09 03:45:55;;;;;;;7.67;3.33;;;12.40;46.40;;;;;;5136169;27;20430;-58
2021/03/09 03:48:22;;;;;;;4.17;3.57;;;12.40;46.40;;;;;;5136394;27;20545;-57
2021/03/09 03:50:49;;;;;;;3.63;3.33;;;12.40;46.20;;;;;;5097716;27;20437;-58
2021/03/09 03:53:20;;;;;;;3.50;3.13;;;12.30;46.30;;;;;;5096226;28;20471;-57
2021/03/09 03:55:53;;;;;;;3.73;3.17;;;12.30;46.40;;;;;;5095319;28;20521;-56
2021/03/09 03:58:25;;;;;;;3.83;3.40;;;12.30;46.40;;;;;;5112010;27;20525;-56
2021/03/09 04:00:52;;;;;;;5.47;3.73;;;12.30;46.40;;;;;;5136807;27;20530;-58
2021/03/09 04:03:19;;;;;;;5.57;3.73;;;12.20;46.60;;;;;;5136793;27;20435;-56
2021/03/09 04:05:47;;;;;;;4.90;3.93;;;12.30;46.50;;;;;;5136186;27;20499;-58
2021/03/09 04:08:15;;;;;;;4.23;3.67;;;12.30;46.40;;;;;;5136152;27;20431;-58
2021/03/09 04:10:42;;;;;;;5.97;3.63;;;12.30;46.60;;;;;;5136614;27;20435;-53
2021/03/09 04:13:09;;;;;;;5.77;3.80;;;12.30;46.60;;;;;;5136282;27;20534;-56
2021/03/09 04:15:36;;;;;;;5.37;4.07;;;12.30;46.50;;;;;;5135582;27;20466;-58
2021/03/09 04:18:04;;;;;;;6.27;4.00;;;12.30;46.60;;;;;;5136504;27;20557;-58
2021/03/09 04:20:37;;;;;;;7.20;4.10;;;12.30;46.70;;;;;;5136626;27;20526;-56
2021/03/09 04:23:04;;;;;;;6.33;3.87;;;12.30;46.70;;;;;;5136336;27;20580;-57
2021/03/09 04:25:32;;;;;;;4.87;3.87;;;12.30;46.60;;;;;;5108699;27;20509;-56
2021/03/09 04:27:59;;;;;;;5.20;3.83;;;12.20;46.70;;;;;;5095691;28;20527;-57
2021/03/09 04:30:25;;;;;;;4.30;3.90;;;12.30;46.80;;;;;;5094883;28;20465;-57
2021/03/09 04:32:53;;;;;;;6.77;4.17;;;12.30;46.70;;;;;;5095533;28;20479;-58
2021/03/09 04:35:20;;;;;;;4.77;3.87;;;12.30;46.70;;;;;;5094561;28;20440;-56
2021/03/09 04:37:47;;;;;;;5.80;3.73;;;12.30;46.80;;;;;;5095007;28;20551;-58
2021/03/09 04:40:14;;;;;;;5.20;3.77;;;12.20;46.90;;;;;;5094775;28;20468;-58
2021/03/09 04:42:41;;;;;;;5.73;4.03;;;12.30;46.90;;;;;;5095366;27;20474;-57
2021/03/09 04:45:09;;;;;;;4.63;3.80;;;12.30;46.90;;;;;;5094304;28;20433;-58
2021/03/09 04:47:36;;;;;;;4.40;3.93;;;12.30;46.90;;;;;;5094383;28;20468;-56
2021/03/09 04:50:05;;;;;;;3.50;3.20;;;12.30;46.90;;;;;;5094394;28;20505;-57
2021/03/09 04:52:32;;;;;;;5.60;4.13;;;12.30;47.00;;;;;;5094308;27;20447;-58
2021/03/09 04:54:59;;;;;;;4.20;3.77;;;12.10;47.00;;;;;;5094411;28;20532;-58
2021/03/09 04:57:34;;;;;;;5.07;4.03;;;12.10;47.20;;;;;;5094705;28;20530;-58
2021/03/09 05:00:01;;;;;;;4.60;3.70;;;12.10;47.80;;;;;;5106159;27;20477;-57
2021/03/09 05:02:27;;;;;;;5.93;4.20;;;12.10;47.10;;;;;;5135540;27;20508;-58
2021/03/09 05:04:54;;;;;;;5.33;4.53;;;12.10;47.10;;;;;;5134923;27;20524;-55
2021/03/09 05:07:22;;;;;;;5.90;4.30;;;12.10;47.20;;;;;;5135155;27;20466;-57
2021/03/09 05:09:49;;;;;;;6.50;4.30;;;12.20;47.30;;;;;;5107835;27;20468;-57
2021/03/09 05:12:16;;;;;;;4.80;3.50;;;12.20;47.40;;;;;;5094539;28;20468;-55
2021/03/09 05:14:43;;;;;;;4.00;3.60;;;12.10;47.30;;;;;;5093695;28;20453;-58
2021/03/09 05:17:09;;;;;;;5.63;3.90;;;12.10;47.40;;;;;;5094466;27;20559;-55
2021/03/09 05:19:36;;;;;;;5.03;3.93;;;12.10;47.50;;;;;;5094376;28;20513;-57
2021/03/09 05:22:03;;;;;;;4.40;3.80;;;12.10;47.60;;;;;;5095001;28;20531;-57
2021/03/09 05:24:31;;;;;;;6.60;4.30;;;12.00;47.60;;;;;;5093885;28;20441;-53
2021/03/09 05:26:58;;;;;;;5.30;3.87;;;12.10;47.70;;;;;;5094124;27;20537;-57
2021/03/09 05:29:25;;;;;;;4.93;3.83;;;12.10;47.60;;;;;;5093757;28;20439;-57
2021/03/09 05:31:52;;;;;;;5.40;4.00;;;12.10;47.70;;;;;;5094448;28;20486;-57
2021/03/09 05:34:20;;;;;;;5.03;4.03;;;12.10;47.60;;;;;;5093395;28;20563;-52
2021/03/09 05:36:47;;;;;;;4.33;3.87;;;12.10;47.70;;;;;;5094543;27;20551;-57
2021/03/09 05:39:13;;;;;;;5.20;4.07;;;12.10;47.60;;;;;;5093786;28;20536;-57
2021/03/09 05:41:41;;;;;;;4.40;3.53;;;12.00;47.70;;;;;;5094192;28;20483;-52
2021/03/09 05:44:08;;;;;;;4.97;3.87;;;12.00;47.80;;;;;;5093654;27;20437;-58
2021/03/09 05:46:35;;;;;;;5.17;3.83;;;12.00;47.90;;;;;;5093755;28;20436;-58
2021/03/09 05:49:02;;;;;;;7.33;4.83;;;11.90;48.60;;;;;;5093787;28;20504;-56
2021/03/09 05:51:47;;;;;;;5.20;4.00;;;11.90;48.10;;;;;;5093935;28;20567;-58
2021/03/09 05:54:14;;;;;;;4.03;3.30;;;12.00;48.00;;;;;;5093467;28;20440;-57
2021/03/09 05:56:42;;;;;;;4.80;3.40;;;12.00;48.10;;;;;;5093384;28;20477;-58
2021/03/09 05:59:09;;;;;;;4.40;3.77;;;12.00;48.00;;;;;;5087673;28;20512;-57
2021/03/09 06:01:36;;;;;;;4.57;4.10;;;12.00;48.10;;;;;;5098791;27;20565;-58
2021/03/09 06:04:03;;;;;;;4.60;3.50;;;12.00;48.20;;;;;;5134599;27;20445;-56
2021/03/09 06:06:30;;;;;;;5.07;3.90;;;11.90;48.20;;;;;;5134398;27;20471;-58
2021/03/09 06:08:57;;;;;;;4.63;3.77;;;11.90;48.30;;;;;;5134375;27;20507;-57
2021/03/09 06:11:24;;;;;;;5.30;4.13;;;12.00;48.30;;;;;;5133865;27;20484;-58
2021/03/09 06:13:51;;;;;;;4.70;4.07;;;12.00;48.20;;;;;;5134130;27;20521;-58
2021/03/09 06:16:19;;;;;;;5.63;4.20;;;11.90;48.30;;;;;;5133699;27;20470;-56
2021/03/09 06:18:53;;;;;;;5.03;4.13;;;12.00;48.40;;;;;;5133746;27;20553;-57
2021/03/09 06:21:20;;;;;;;4.40;3.97;;;12.00;48.30;;;;;;5133780;27;20447;-57
2021/03/09 06:23:47;;;;;;;4.80;3.87;;;12.00;48.30;;;;;;5134341;27;20502;-57
2021/03/09 06:26:36;;;;;;;5.37;3.70;;;11.90;48.40;;;;;;5133372;27;20530;-57
2021/03/09 06:29:08;;;;;;;4.50;4.10;;;11.90;48.50;;;;;;5122468;27;20523;-56
2021/03/09 06:31:35;;;;;;;4.93;4.03;;;12.00;48.60;;;;;;5120927;28;20455;-57
2021/03/09 06:34:25;;;;;;;4.67;3.87;;;11.90;48.60;;;;;;5123413;27;20476;-58
2021/03/09 06:37:03;;;;;;;4.60;4.10;;;12.00;48.70;;;;;;5122626;28;20576;-57
2021/03/09 06:39:48;;;;;;;6.53;4.60;;;12.00;48.70;;;;;;5122671;27;20465;-57
2021/03/09 06:42:21;;;;;;;4.70;4.07;;;12.00;48.70;;;;;;5123516;27;20531;-58
2021/03/09 06:44:50;;;;;;;4.40;4.00;;;12.00;48.80;;;;;;5121081;28;20427;-58
2021/03/09 06:47:17;;;;;;;4.33;3.93;;;12.00;48.80;;;;;;5121773;28;20488;-57
2021/03/09 06:49:54;;;;;;;5.40;4.00;;;12.00;48.90;;;;;;5123245;27;20431;-58
2021/03/09 06:52:24;;;;;;;5.47;4.10;;;12.00;49.00;;;;;;5120179;28;20456;-57
2021/03/09 06:54:51;;;;;;;3.90;3.50;;;12.00;49.00;;;;;;5123864;27;20508;-57
2021/03/09 06:57:18;;;;;;;4.20;3.77;;;12.00;49.00;;;;;;5121365;28;20463;-58
2021/03/09 06:59:47;;;;;;;4.50;3.90;;;12.00;49.20;;;;;;5113137;28;20442;-58
2021/03/09 07:02:16;;;;;;;5.07;4.00;;;12.00;49.20;;;;;;5131215;28;20435;-58
2021/03/09 07:04:44;;;;;;;3.93;3.57;;;12.10;49.20;;;;;;5133118;27;20442;-58
2021/03/09 07:07:11;;;;;;;4.70;3.93;;;12.00;49.30;;;;;;5133972;27;20463;-57
2021/03/09 07:09:38;;;;;;;4.03;3.40;;;12.10;49.20;;;;;;5134028;27;20538;-58
2021/03/09 07:12:09;;;;;;;5.17;4.17;;;12.10;49.20;;;;;;5136356;27;20524;-57
2021/03/09 07:14:36;;;;;;;5.07;4.00;;;12.10;49.30;;;;;;5096413;28;20479;-58
2021/03/09 07:17:04;;;;;;;5.70;4.00;;;12.10;49.20;;;;;;5096909;28;20480;-58
2021/03/09 07:19:36;;;;;;;4.83;3.87;;;12.00;49.20;;;;;;5096909;28;20524;-57
2021/03/09 07:22:07;;;;;;;5.73;4.80;;;12.10;49.30;;;;;;5115568;27;20538;-57
2021/03/09 07:24:33;;;;;;;3.77;3.47;;;12.10;49.40;;;;;;5137029;27;20521;-58
2021/03/09 07:27:11;;;;;;;4.03;3.63;;;12.10;49.40;;;;;;5137549;27;20446;-58
2021/03/09 07:29:39;;;;;;;6.00;3.60;;;12.00;49.40;;;;;;5136292;27;20461;-57
2021/03/09 07:32:08;;;;;;;6.27;3.83;;;12.10;49.50;;;;;;5124964;27;20428;-57
2021/03/09 07:34:36;;;;;;;4.10;3.70;;;12.10;49.70;;;;;;5116998;27;20435;-56
2021/03/09 07:37:03;;;;;;;6.33;4.40;;;12.00;49.70;;;;;;5137164;27;20498;-58
2021/03/09 07:39:30;;;;;;;6.23;4.30;;;12.10;49.70;;;;;;5136542;27;20447;-58
2021/03/09 07:41:57;;;;;;;4.00;3.60;;;12.20;49.50;;;;;;5136759;27;20454;-58
2021/03/09 07:44:24;;;;;;;3.80;3.40;;;12.20;49.60;;;;;;5136748;27;20427;-57
2021/03/09 07:46:52;;;;;;;6.63;4.23;;;12.20;49.60;;;;;;5137025;27;20431;-56
2021/03/09 07:49:18;;;;;;;6.10;4.50;;;12.20;49.70;;;;;;5136855;27;20452;-57
2021/03/09 07:52:14;;;;;;;5.03;3.67;;;12.20;49.80;;;;;;5136815;27;20427;-58
2021/03/09 07:54:41;;;;;;;3.80;3.40;;;12.20;49.80;;;;;;5136732;27;20431;-57
2021/03/09 07:57:17;;;;;;;3.80;3.27;;;12.10;49.80;;;;;;5130201;27;20467;-58
2021/03/09 07:59:54;;;;;;;4.43;3.40;;;12.10;50.00;;;;;;5119739;27;20432;-59
2021/03/09 08:02:45;;;;;;;3.93;3.57;;;12.10;49.80;;;;;;5124819;27;20434;-58
2021/03/09 08:05:13;;;;;;;6.33;3.60;;;12.10;50.10;;;;;;5124825;27;20419;-58
2021/03/09 08:07:47;;;;;;;9.40;3.80;;;12.10;50.00;;;;;;5126327;27;20432;-58
2021/03/09 08:10:39;;;;;;;4.93;3.90;;;12.10;50.20;;;;;;5123892;27;20416;-58
2021/03/09 08:13:19;;;;;;;4.20;3.80;;;12.10;50.20;;;;;;5126087;27;20416;-58
2021/03/09 08:15:46;;;;;;;3.70;3.37;;;12.10;50.10;;;;;;5126613;27;20432;-57
2021/03/09 08:18:40;;;;;;;5.03;3.73;;;12.20;50.30;;;;;;5125795;27;20552;-56
2021/03/09 08:21:07;;;;;;;4.83;4.17;;;12.20;50.20;;;;;;5118223;27;20527;-58
2021/03/09 08:23:56;;;;;;;6.10;4.10;;;12.20;50.20;;;;;;5122362;27;20455;-58
2021/03/09 08:26:42;;;;;;;4.53;4.10;;;12.20;50.30;;;;;;5125284;27;20510;-58
2021/03/09 08:29:31;;;;;;;5.30;4.00;;;12.20;50.40;;;;;;5121029;27;20490;-58
2021/03/09 08:32:27;;;;;;;5.30;3.90;;;12.30;50.20;;;;;;5121755;27;20459;-58
2021/03/09 08:35:32;;;;;;;5.67;4.07;;;12.40;50.20;;;;;;5126974;27;20432;-58
2021/03/09 08:38:14;;;;;;;4.93;3.73;;;12.30;50.30;;;;;;5129774;27;20574;-61
2021/03/09 08:41:10;;;;;;;4.30;3.90;;;12.30;50.30;;;;;;5126935;27;20423;-62
2021/03/09 08:43:41;;;;;;;6.23;4.40;;;12.30;50.40;;;;;;5125989;27;20495;-62
2021/03/09 08:46:12;;;;;;;5.30;4.03;;;12.30;50.30;;;;;;5123250;27;20444;-62
2021/03/09 08:48:46;;;;;;;4.93;3.70;;;12.30;50.30;;;;;;5127862;27;20484;-62
2021/03/09 08:51:40;;;;;;;8.07;4.33;;;12.30;50.20;;;;;;5119626;27;20444;-63
2021/03/09 08:54:24;;;;;;;5.40;4.17;;;12.40;50.40;;;;;;5125424;27;20451;-63
2021/03/09 08:56:52;;;;;;;4.80;4.20;;;12.40;50.30;;;;;;5125358;27;20466;-62
2021/03/09 08:59:23;;;;;;;4.93;4.07;;;12.50;50.20;;;;;;5135482;27;20439;-62
2021/03/09 09:01:50;;;;;;;5.20;3.87;;;12.50;50.30;;;;;;5135529;27;20502;-62
2021/03/09 09:04:18;;;;;;;4.07;3.20;;;12.40;50.30;;;;;;5119655;27;20431;-62
2021/03/09 09:06:45;;;;;;;5.63;4.17;;;12.50;50.40;;;;;;5123205;27;20433;-62
2021/03/09 09:09:12;;;;;;;3.83;3.53;;;12.60;50.40;;;;;;5129952;27;20420;-63
2021/03/09 09:11:39;;;;;;;8.63;4.90;;;12.60;50.30;;;;;;5135651;27;20481;-62
2021/03/09 09:14:17;;;;;;;5.00;3.77;;;12.60;50.10;;;;;;5135247;27;20534;-62
2021/03/09 09:16:46;;;;;;;4.23;3.83;;;12.60;50.10;;;;;;5128173;27;20503;-62
2021/03/09 09:19:13;;;;;;;4.60;4.10;;;12.60;50.40;;;;;;5134848;27;20495;-62
2021/03/09 09:21:47;;;;;;;4.57;4.17;;;12.60;50.50;;;;;;5135918;27;20447;-62
2021/03/09 09:24:21;;;;;;;4.30;3.90;;;12.60;50.30;;;;;;5135063;27;20514;-62
2021/03/09 09:26:58;;;;;;;4.87;3.83;;;12.60;50.20;;;;;;5131292;27;20428;-62
2021/03/09 09:29:26;;;;;;;4.23;3.83;;;12.60;50.30;;;;;;5114886;28;20436;-62
2021/03/09 09:31:57;;;;;;;5.17;4.40;;;12.70;50.40;;;;;;5114438;28;20460;-62
2021/03/09 09:34:36;;;;;;;5.30;4.00;;;12.70;50.40;;;;;;5111429;27;20507;-62
2021/03/09 09:37:11;;;;;;;6.40;3.87;;;12.80;50.40;;;;;;5114016;28;20451;-62
2021/03/09 09:39:37;;;;;;;4.00;3.70;;;12.70;50.40;;;;;;5107651;28;20535;-62
2021/03/09 09:42:11;;;;;;;4.70;3.90;;;12.70;50.60;;;;;;5115403;27;20440;-62
2021/03/09 09:44:39;;;;;;;5.07;4.30;;;12.70;50.70;;;;;;5132726;27;20459;-62
2021/03/09 09:47:07;;;;;;;8.63;4.23;;;12.70;50.70;;;;;;5124955;27;20448;-62
2021/03/09 09:49:34;;;;;;;3.90;3.50;;;12.80;50.70;;;;;;5114522;28;20428;-62
2021/03/09 09:52:01;;;;;;;4.23;3.83;;;12.80;50.60;;;;;;5119052;27;20512;-62
2021/03/09 09:54:28;;;;;;;4.80;3.63;;;12.80;50.60;;;;;;5134629;27;20427;-62
2021/03/09 09:56:55;;;;;;;8.03;3.93;;;12.70;50.80;;;;;;5134933;27;20525;-62
2021/03/09 09:59:25;;;;;;;7.00;4.30;;;12.70;51.00;;;;;;5134819;27;20515;-65
2021/03/09 10:01:53;;;;;;;5.47;3.07;;;12.60;51.10;;;;;;5126769;27;20475;-61
2021/03/09 10:04:20;;;;;;;8.37;3.73;;;13.20;57.40;;;;;;5121550;27;20438;-60
2021/03/09 10:06:47;;;;;;;6.63;3.63;;;13.80;55.50;;;;;;5114906;28;20528;-61
2021/03/09 10:09:16;;;;;;;8.33;4.00;;;13.90;55.50;;;;;;5129412;27;20473;-63
2021/03/09 10:11:47;;;;;;;8.40;3.50;;;13.60;55.50;;;;;;5134711;27;20477;-63
2021/03/09 10:14:14;;;;;;;6.30;3.80;;;13.40;55.70;;;;;;5116804;27;20475;-63
2021/03/09 10:16:41;;;;;;;8.30;3.87;;;13.40;55.90;;;;;;5106547;28;20464;-62
2021/03/09 10:19:09;;;;;;;10.80;3.50;;;13.40;55.70;;;;;;5111753;27;20463;-62
2021/03/09 10:21:38;;;;;;;8.23;3.97;;;13.40;55.40;;;;;;5114550;28;20432;-61
2021/03/09 10:24:07;;;;;;;6.47;3.60;;;13.50;55.00;;;;;;5114259;28;20436;-62
2021/03/09 10:26:35;;;;;;;5.77;4.00;;;13.40;54.80;;;;;;5114665;28;20499;-62
2021/03/09 10:29:15;;;;;;;4.63;4.07;;;13.40;54.80;;;;;;5132710;28;20438;-62
2021/03/09 10:31:43;;;;;;;9.97;3.97;;;13.40;54.70;;;;;;5134854;27;20534;-62
2021/03/09 10:34:11;;;;;;;5.73;3.83;;;13.40;54.60;;;;;;5134284;27;20434;-63
2021/03/09 10:36:52;;;;;;;10.40;4.60;;;13.40;54.70;;;;;;5134387;27;20522;-62
2021/03/09 10:39:19;;;;;;;7.90;4.97;;;13.30;54.50;;;;;;5135051;27;20466;-62
2021/03/09 10:41:46;;;;;;;6.00;4.53;;;13.40;54.60;;;;;;5134762;27;20470;-62
2021/03/09 10:44:30;;;;;;;5.27;4.23;;;13.30;54.50;;;;;;5134728;27;20495;-63
2021/03/09 10:46:56;;;;;;;7.07;4.60;;;13.20;54.60;;;;;;5098938;27;20433;-62
2021/03/09 10:49:24;;;;;;;9.97;5.40;;;13.20;54.60;;;;;;5098397;28;20439;-65
2021/03/09 10:52:01;;;;;;;6.60;4.80;;;13.30;54.60;;;;;;5098152;28;20436;-62
2021/03/09 10:54:28;;;;;;;9.50;5.30;;;13.10;54.80;;;;;;5106259;27;20515;-62
2021/03/09 10:56:56;;;;;;;11.13;5.37;;;13.20;54.80;;;;;;5118298;28;20482;-62
2021/03/09 10:59:23;;;;;;;9.33;5.17;;;13.30;54.60;;;;;;5118271;28;20532;-63
2021/03/09 11:01:50;;;;;;;6.57;4.67;;;13.30;54.20;;;;;;5118492;27;20473;-64
2021/03/09 11:04:17;;;;;;;6.07;4.70;;;13.20;54.60;;;;;;5101770;27;20513;-63
2021/03/09 11:06:45;;;;;;;7.37;5.00;;;13.10;55.00;;;;;;5097674;28;20436;-63
2021/03/09 11:09:12;;;;;;;11.03;5.47;;;13.10;54.80;;;;;;5102749;27;20436;-63
2021/03/09 11:11:39;;;;;;;6.47;4.60;;;13.20;54.60;;;;;;5137912;27;20506;-64
2021/03/09 11:14:06;;;;;;;7.30;5.00;;;13.20;54.60;;;;;;5138034;27;20534;-63
2021/03/09 11:16:33;;;;;;;8.00;4.63;;;13.30;54.20;;;;;;5138411;27;20419;-64
2021/03/09 11:19:01;;;;;;;11.73;5.43;;;13.40;54.10;;;;;;5137527;27;20498;-63
2021/03/09 11:21:28;;;;;;;6.87;4.67;;;13.40;54.10;;;;;;5115150;27;20448;-63
2021/03/09 11:23:58;;;;;;;6.80;4.80;;;13.40;54.10;;;;;;5127801;27;20434;-64
2021/03/09 11:26:25;;;;;;;5.43;4.90;;;13.50;53.70;;;;;;5117504;27;20451;-64
2021/03/09 11:28:54;;;;;;;5.83;5.00;;;13.50;53.90;;;;;;5118124;28;20459;-63
2021/03/09 11:31:21;;;;;;;10.60;5.20;;;13.50;53.90;;;;;;5117833;28;20493;-64
2021/03/09 11:33:48;;;;;;;5.67;4.77;;;13.60;53.90;;;;;;5117752;28;20437;-63
2021/03/09 11:36:15;;;;;;;6.93;4.47;;;13.60;53.60;;;;;;5117222;28;20447;-64
2021/03/09 11:38:42;;;;;;;6.77;4.80;;;13.60;53.60;;;;;;5125619;27;20538;-64
2021/03/09 11:41:10;;;;;;;9.30;4.97;;;13.70;53.60;;;;;;5138082;27;20438;-64
2021/03/09 11:43:37;;;;;;;11.77;5.10;;;13.70;53.60;;;;;;5138419;27;20496;-63
2021/03/09 11:46:04;;;;;;;14.23;5.57;;;13.70;53.50;;;;;;5137560;27;20439;-64
2021/03/09 11:48:33;;;;;;;9.87;5.23;;;13.70;53.70;;;;;;5121604;27;20486;-63
2021/03/09 11:51:00;;;;;;;13.00;5.40;;;13.70;53.70;;;;;;5117492;28;20417;-64
2021/03/09 11:53:27;;;;;;;8.43;5.20;;;13.80;53.50;;;;;;5114888;28;20444;-63
2021/03/09 11:55:55;;;;;;;9.93;5.07;;;13.60;53.70;;;;;;5114527;27;20537;-63
2021/03/09 11:58:23;;;;;;;7.13;5.10;;;13.60;53.80;;;;;;5113010;27;20504;-63
2021/03/09 12:00:49;;;;;;;7.60;5.30;;;13.60;53.80;;;;;;5097027;28;20443;-63
2021/03/09 12:03:16;;;;;;;5.93;4.60;;;13.60;53.80;;;;;;5105294;28;20444;-62
2021/03/09 12:05:43;;;;;;;6.20;5.10;;;13.60;53.80;;;;;;5128257;27;20439;-62
2021/03/09 12:08:10;;;;;;;6.37;4.53;;;13.60;53.70;;;;;;5137657;27;20530;-63
2021/03/09 12:10:37;;;;;;;6.70;5.30;;;13.60;53.70;;;;;;5137839;27;20524;-63
2021/03/09 12:13:09;;;;;;;6.37;5.70;;;13.60;53.90;;;;;;5118233;27;20465;-62
2021/03/09 12:15:37;;;;;;;11.40;5.50;;;13.60;54.00;;;;;;5137132;27;20459;-62
2021/03/09 12:18:04;;;;;;;6.37;4.97;;;13.60;53.90;;;;;;5137638;27;20531;-63
2021/03/09 12:20:31;;;;;;;9.17;5.80;;;13.50;54.10;;;;;;5137463;27;20500;-63
2021/03/09 12:22:58;;;;;;;7.50;5.53;;;13.60;54.00;;;;;;5136991;27;20443;-64
2021/03/09 12:25:25;;;;;;;5.40;4.90;;;13.60;53.90;;;;;;5136899;27;20530;-63
2021/03/09 12:27:51;;;;;;;9.83;5.83;;;13.60;54.00;;;;;;5137284;27;20467;-64
2021/03/09 12:30:19;;;;;;;6.80;5.27;;;13.60;53.90;;;;;;5116661;28;20523;-64
2021/03/09 12:32:46;;;;;;;7.73;5.50;;;13.60;53.90;;;;;;5101367;27;20543;-64
2021/03/09 12:35:14;;;;;;;8.50;5.10;;;13.60;54.00;;;;;;5095779;28;20475;-63
2021/03/09 12:37:41;;;;;;;7.83;5.70;;;13.60;53.80;;;;;;5096472;28;20517;-63
2021/03/09 12:40:09;;;;;;;10.90;5.97;;;13.70;53.80;;;;;;5097757;27;20486;-63
2021/03/09 12:42:35;;;;;;;8.70;5.10;;;13.60;53.80;;;;;;5111567;28;20471;-63
2021/03/09 12:45:03;;;;;;;6.00;5.20;;;13.60;53.90;;;;;;5115794;28;20457;-63
2021/03/09 12:47:30;;;;;;;9.43;5.37;;;13.50;54.10;;;;;;5116597;28;20482;-65
2021/03/09 12:49:58;;;;;;;13.23;6.43;;;13.50;54.30;;;;;;5105288;28;20437;-63
2021/03/09 12:52:25;;;;;;;7.50;5.60;;;13.50;54.10;;;;;;5107113;27;20469;-63
2021/03/09 12:54:52;;;;;;;6.90;5.00;;;13.50;54.20;;;;;;5136493;27;20486;-63
2021/03/09 12:57:19;;;;;;;7.30;5.23;;;13.50;54.20;;;;;;5136708;27;20435;-63